Main page
METAR-TAF:

METAR-TAF

Airports :

Heraklion International Airport

Heraklion, Greece

latitude: 35-20N, longitude: 025-11E, elevation: 37 m

Current weather observation

The report was made 15 minutes ago, at 22:20 UTC
Wind 6 kt from the South
Temperature 8°C
Humidity 87%
Pressure 1019 hPa
Visibility 10 km or more
Few clouds at a height of 2000 ft

METAR: LGIR 182220Z 17006KT 9999 FEW020 08/06 Q1019 NOSIG

Time: 00:35 (22:35 UTC)

Forecast

The report was made 5 hours and 35 minutes ago, at 17:00 UTC
Forecast valid from 18 at 18 UTC to 19 at 18 UTC
Wind 8 kt from the Northwest
Visibility 10 km or more
Few clouds at a height of 2000 ft
Becoming
from 19 at 10 UTC to 19 at 12 UTC
Few clouds at a height of 2000 ft
Scattered clouds at a height of 2500 ft
Becoming
from 18 at 22 UTC to 18 at 24 UTC
Wind 7 kt from the South
Becoming
from 19 at 10 UTC to 19 at 12 UTC
Wind 12 kt from the West/Northwest

TAF: LGIR 181700Z 1818/1918 32008KT 9999 FEW020 BECMG 1910/1912 FEW020 SCT025 BECMG 1822/1824 18007KT BECMG 1910/1912 29012KT

Weather observations and forecasts of more than 4000 airports (METAR and TAF reports).

The available stations are represented by yellow and red dots on the map.

Hover mouse over dot to see the name of the station.

Then click to see weather observations and forecasts.

To change the map : click on the green buttons with a black cross to zoom in, on the green button with a dash to zoom out, or on the green arrows for adjacent maps.


METAR-TAF: